createdAt,value
2018-08-17T05:33:29.499Z,16.70
2018-08-17T05:35:57.794Z,17.00
2018-08-17T05:38:26.016Z,17.20
2018-08-17T05:40:55.015Z,17.60
2018-08-17T05:43:24.216Z,17.70
2018-08-17T05:45:52.455Z,17.80
2018-08-17T05:48:20.665Z,17.70
2018-08-17T05:50:48.887Z,17.70
2018-08-17T05:53:17.107Z,17.70
2018-08-17T05:55:45.344Z,17.70
2018-08-17T05:58:14.462Z,17.70
2018-08-17T06:00:42.767Z,17.80
2018-08-17T06:03:11.053Z,18.00
2018-08-17T06:05:39.284Z,18.20
2018-08-17T06:08:08.398Z,18.30
2018-08-17T06:10:36.614Z,18.40
2018-08-17T06:13:04.882Z,18.60
2018-08-17T06:15:33.093Z,18.70
2018-08-17T06:18:01.268Z,18.90
2018-08-17T06:20:29.563Z,18.80
2018-08-17T06:22:58.157Z,18.80
2018-08-17T06:25:26.407Z,18.90
2018-08-17T06:27:54.643Z,18.80
2018-08-17T06:30:22.952Z,18.80
2018-08-17T06:32:51.183Z,18.80
2018-08-17T06:35:19.387Z,18.90
2018-08-17T06:37:47.611Z,18.90
2018-08-17T06:40:15.859Z,19.00
2018-08-17T06:42:44.162Z,19.20
2018-08-17T06:45:13.055Z,19.10
2018-08-17T06:47:41.387Z,19.20
2018-08-17T06:50:10.894Z,19.20
2018-08-17T06:52:40.190Z,19.30
2018-08-17T06:55:09.793Z,19.30
2018-08-17T06:57:38.576Z,19.30
2018-08-17T07:00:10.196Z,19.40
2018-08-17T07:02:38.594Z,19.50
2018-08-17T07:05:06.852Z,19.50
2018-08-17T07:07:35.145Z,19.50
2018-08-17T07:10:03.755Z,19.50
2018-08-17T07:12:32.204Z,19.60
2018-08-17T07:15:00.569Z,19.70
2018-08-17T07:17:29.017Z,19.80
2018-08-17T07:19:57.423Z,19.80
2018-08-17T07:22:25.848Z,19.80
2018-08-17T07:24:54.353Z,20.00
2018-08-17T07:27:22.702Z,20.10
2018-08-17T07:29:51.344Z,20.00
2018-08-17T07:32:19.991Z,20.20
2018-08-17T07:34:48.788Z,20.20
2018-08-17T07:37:17.103Z,20.20
2018-08-17T07:39:45.425Z,20.20
2018-08-17T07:42:14.235Z,20.30
2018-08-17T07:44:42.514Z,20.30
2018-08-17T07:47:10.799Z,20.30
2018-08-17T07:49:41.240Z,20.40
2018-08-17T07:52:09.563Z,20.30
2018-08-17T07:54:37.848Z,20.20
2018-08-17T07:57:06.192Z,20.20
2018-08-17T07:59:34.572Z,20.20
2018-08-17T08:02:02.824Z,20.20
2018-08-17T08:04:31.047Z,20.20
2018-08-17T08:06:59.246Z,20.30
2018-08-17T08:09:27.538Z,20.30
2018-08-17T08:11:55.867Z,20.40
2018-08-17T08:14:24.188Z,20.60
2018-08-17T08:16:52.445Z,20.50
2018-08-17T08:19:20.708Z,20.60
2018-08-17T08:21:50.051Z,20.70
2018-08-17T08:24:19.132Z,20.80
2018-08-17T08:26:47.791Z,20.80
2018-08-17T08:29:16.292Z,21.00
2018-08-17T08:31:44.531Z,21.00
2018-08-17T08:34:13.142Z,21.10
2018-08-17T08:36:41.355Z,21.20
2018-08-17T08:39:11.660Z,21.40
2018-08-17T08:41:39.963Z,21.50
2018-08-17T08:44:08.164Z,21.60
2018-08-17T08:46:37.094Z,21.70
2018-08-17T08:49:06.040Z,21.80
2018-08-17T08:51:34.340Z,21.90
2018-08-17T08:54:02.604Z,22.00
2018-08-17T08:56:30.848Z,22.00
2018-08-17T08:58:59.106Z,22.10
2018-08-17T09:01:27.459Z,22.20
2018-08-17T09:03:55.753Z,22.30
2018-08-17T09:06:24.340Z,22.40
2018-08-17T09:08:52.566Z,22.60
2018-08-17T09:11:20.838Z,22.80
2018-08-17T09:13:49.200Z,22.90
2018-08-17T09:16:17.447Z,22.80
2018-08-17T09:18:47.699Z,22.80
2018-08-17T09:21:16.904Z,22.80
2018-08-17T09:23:45.159Z,23.00
2018-08-17T09:26:13.457Z,23.10
2018-08-17T09:28:41.677Z,23.10
2018-08-17T09:31:09.896Z,23.00
2018-08-17T09:33:38.215Z,22.80
2018-08-17T09:36:06.638Z,22.90
2018-08-17T09:38:34.865Z,22.80
2018-08-17T09:41:03.127Z,22.80
2018-08-17T09:43:31.399Z,22.80
2018-08-17T09:45:59.623Z,22.70
2018-08-17T09:48:27.833Z,22.90
2018-08-17T09:50:57.017Z,23.00
2018-08-17T09:53:25.283Z,23.10
2018-08-17T09:55:54.467Z,23.20
2018-08-17T09:58:22.783Z,23.20
2018-08-17T10:03:00.852Z,23.30
2018-08-17T10:05:34.649Z,23.40
2018-08-17T10:08:08.249Z,23.70
2018-08-17T10:10:36.529Z,23.90
2018-08-17T10:13:04.812Z,24.00
2018-08-17T10:15:33.966Z,24.10
2018-08-17T10:18:02.237Z,24.30
2018-08-17T10:20:30.465Z,24.30
2018-08-17T10:23:18.763Z,24.50
2018-08-17T10:25:47.076Z,24.60
2018-08-17T10:28:16.084Z,24.70
2018-08-17T10:30:44.311Z,24.90
2018-08-17T10:33:12.512Z,25.00
2018-08-17T10:35:40.759Z,25.00
2018-08-17T10:38:08.983Z,25.10
2018-08-17T10:40:37.348Z,25.10
2018-08-17T10:43:06.078Z,25.20
2018-08-17T10:46:05.204Z,25.40
2018-08-17T10:48:33.503Z,25.40
2018-08-17T10:51:01.732Z,25.50
2018-08-17T10:53:36.111Z,25.70
2018-08-17T10:56:04.477Z,25.70
2018-08-17T10:58:33.900Z,26.00
2018-08-17T11:01:03.136Z,26.10
2018-08-17T11:03:31.767Z,26.20
2018-08-17T11:05:59.955Z,26.30
2018-08-17T11:08:28.239Z,26.40
2018-08-17T11:10:56.492Z,26.40
2018-08-17T11:13:26.659Z,26.40
2018-08-17T11:15:56.847Z,26.50
2018-08-17T11:18:25.051Z,26.70
2018-08-17T11:20:54.217Z,26.90
2018-08-17T11:23:22.728Z,26.90
2018-08-17T11:25:50.938Z,27.00
2018-08-17T11:28:21.164Z,27.20
2018-08-17T11:30:49.367Z,27.40
2018-08-17T11:33:23.176Z,27.50
2018-08-17T11:35:52.368Z,27.70
2018-08-17T11:38:21.399Z,27.90
2018-08-17T11:40:49.695Z,28.00
2018-08-17T11:43:17.909Z,28.30
2018-08-17T11:45:46.543Z,28.50
2018-08-17T11:48:25.101Z,28.70
2018-08-17T11:50:53.889Z,28.90
2018-08-17T11:53:22.104Z,28.40
2018-08-17T11:55:50.347Z,28.10
2018-08-17T11:58:18.576Z,28.20
2018-08-17T12:00:46.897Z,28.60
2018-08-17T12:03:15.162Z,29.30
2018-08-17T12:05:43.410Z,29.30
2018-08-17T12:08:11.756Z,28.90
2018-08-17T12:10:40.156Z,28.60
2018-08-17T12:13:13.837Z,28.80
2018-08-17T12:16:02.471Z,29.70
2018-08-17T12:18:30.729Z,30.40
2018-08-17T12:20:58.961Z,30.30
2018-08-17T12:23:27.244Z,31.00
2018-08-17T12:25:56.704Z,31.50
2018-08-17T12:28:26.369Z,32.30
2018-08-17T12:30:54.641Z,32.90
2018-08-17T12:33:22.855Z,33.70
2018-08-17T12:35:51.084Z,32.80
2018-08-17T12:38:19.393Z,31.40
2018-08-17T12:40:51.127Z,30.50
2018-08-17T12:43:21.159Z,31.20
2018-08-17T12:45:49.375Z,32.50
2018-08-17T12:48:17.751Z,33.00
2018-08-17T12:50:46.206Z,33.80
2018-08-17T12:53:14.691Z,34.70
2018-08-17T12:55:43.493Z,35.50
2018-08-17T12:58:11.940Z,35.80
2018-08-17T13:00:40.162Z,35.10
2018-08-17T13:03:08.695Z,33.60
2018-08-17T13:05:37.239Z,32.30
2018-08-17T13:08:06.067Z,31.70
2018-08-17T13:10:34.311Z,31.80
2018-08-17T13:13:09.514Z,32.40
2018-08-17T13:15:38.717Z,32.30
2018-08-17T13:18:14.145Z,31.90
2018-08-17T13:20:42.439Z,31.40
2018-08-17T13:23:10.712Z,31.50
2018-08-17T13:25:39.407Z,32.00
2018-08-17T13:28:08.977Z,32.50
2018-08-17T13:30:37.194Z,32.70
2018-08-17T13:33:05.462Z,33.00
2018-08-17T13:35:33.638Z,33.10
2018-08-17T13:38:01.963Z,32.60
2018-08-17T13:40:30.229Z,31.90
2018-08-17T13:42:58.435Z,31.40
2018-08-17T13:45:26.697Z,31.50
2018-08-17T13:47:54.899Z,32.10
2018-08-17T13:50:23.137Z,32.00
2018-08-17T13:52:53.309Z,32.40
2018-08-17T13:55:21.557Z,32.20
2018-08-17T13:57:49.740Z,31.90
2018-08-17T14:00:17.956Z,31.60
2018-08-17T14:02:46.173Z,31.30
2018-08-17T14:05:14.769Z,31.20
2018-08-17T14:07:43.016Z,31.00
2018-08-17T14:10:11.938Z,30.90
2018-08-17T14:12:40.154Z,30.90
2018-08-17T14:15:09.915Z,30.90
2018-08-17T14:17:39.152Z,30.90
2018-08-17T14:20:10.164Z,31.20
2018-08-17T14:22:38.405Z,31.30
2018-08-17T14:25:07.023Z,30.90
2018-08-17T14:27:35.297Z,31.10
2018-08-17T14:30:04.564Z,30.60
2018-08-17T14:32:32.752Z,30.40
2018-08-17T14:35:02.021Z,30.20
2018-08-17T14:37:30.248Z,30.50
2018-08-17T14:39:58.444Z,30.80
2018-08-17T14:42:26.744Z,30.90
2018-08-17T14:44:54.948Z,30.70
2018-08-17T14:47:23.228Z,30.30
2018-08-17T14:49:51.509Z,30.30
2018-08-17T14:52:20.337Z,29.90
2018-08-17T14:54:48.571Z,29.70
2018-08-17T14:57:16.768Z,30.00
2018-08-17T14:59:45.051Z,30.00
2018-08-17T15:02:13.369Z,29.70
2018-08-17T15:04:41.563Z,29.50
2018-08-17T15:07:09.817Z,29.20
2018-08-17T15:09:37.995Z,29.10
2018-08-17T15:12:06.290Z,28.60
2018-08-17T15:14:34.507Z,28.20
2018-08-17T15:17:02.799Z,28.00
2018-08-17T15:19:31.057Z,27.90
2018-08-17T15:21:59.385Z,28.00
2018-08-17T15:24:27.615Z,27.90
2018-08-17T15:26:55.933Z,28.00
2018-08-17T15:29:24.209Z,28.20
2018-08-17T15:31:53.305Z,28.10
2018-08-17T15:34:23.293Z,28.10
2018-08-17T15:36:51.789Z,27.90
2018-08-17T15:39:20.033Z,27.40
2018-08-17T15:41:48.298Z,27.50
2018-08-17T15:44:23.697Z,27.40
2018-08-17T15:46:52.047Z,27.50
2018-08-17T15:49:28.556Z,27.10
2018-08-17T15:51:56.833Z,26.50
2018-08-17T15:54:25.999Z,26.10
2018-08-17T15:56:54.203Z,25.70
2018-08-17T15:59:22.400Z,25.60
2018-08-17T16:01:50.640Z,25.60
2018-08-17T16:04:18.906Z,25.60
2018-08-17T16:06:49.002Z,25.50
2018-08-17T16:09:18.317Z,25.30
2018-08-17T16:11:46.530Z,25.10
2018-08-17T16:14:14.770Z,25.00
2018-08-17T16:16:43.000Z,24.90
2018-08-17T16:19:12.091Z,24.90
2018-08-17T16:21:40.328Z,25.50
2018-08-17T16:24:08.567Z,25.90
2018-08-17T16:26:36.792Z,26.00
2018-08-17T16:29:05.199Z,26.00
2018-08-17T16:31:39.063Z,25.80
2018-08-17T16:34:08.619Z,25.70
2018-08-17T16:36:38.280Z,25.40
2018-08-17T16:39:12.184Z,25.10
2018-08-17T16:41:41.462Z,24.80
2018-08-17T16:44:09.692Z,24.50
2018-08-17T16:46:38.797Z,24.30
2018-08-17T16:49:07.192Z,24.20
2018-08-17T16:51:35.502Z,24.20
2018-08-17T16:54:03.736Z,24.30
2018-08-17T16:56:31.996Z,24.50
2018-08-17T16:59:00.275Z,24.50
2018-08-17T17:01:29.569Z,24.40
2018-08-17T17:03:58.019Z,24.20
2018-08-17T17:06:26.259Z,24.00
2018-08-17T17:08:59.967Z,23.90
2018-08-17T17:11:28.322Z,23.80
2018-08-17T17:13:56.628Z,23.70
2018-08-17T17:16:33.919Z,23.70
2018-08-17T17:19:02.296Z,23.50
2018-08-17T17:21:33.339Z,23.40
2018-08-17T17:24:01.532Z,23.40
2018-08-17T17:26:29.732Z,23.50
2018-08-17T17:28:57.963Z,23.40
2018-08-17T17:31:26.970Z,23.20
2018-08-17T17:33:55.247Z,23.10
2018-08-17T17:36:23.443Z,23.00
2018-08-17T17:38:51.650Z,22.90
2018-08-17T17:41:19.850Z,22.80
2018-08-17T17:43:48.063Z,22.90
2018-08-17T17:46:18.221Z,22.90
2018-08-17T17:48:46.458Z,22.90
2018-08-17T17:51:15.593Z,22.90
2018-08-17T17:53:43.762Z,22.90
2018-08-17T17:56:12.011Z,22.60
2018-08-17T17:58:41.099Z,22.60
2018-08-17T18:01:10.284Z,22.50
2018-08-17T18:03:40.741Z,22.40
2018-08-17T18:06:08.990Z,22.30
2018-08-17T18:08:38.315Z,22.30
2018-08-17T18:11:07.407Z,22.20
2018-08-17T18:13:35.650Z,22.10
2018-08-17T18:16:03.903Z,21.90
2018-08-17T18:18:32.119Z,21.80
2018-08-17T18:21:00.340Z,21.70
2018-08-17T18:23:28.583Z,21.60
2018-08-17T18:25:57.477Z,21.60
2018-08-17T18:28:26.044Z,21.60
2018-08-17T18:30:54.913Z,21.50
2018-08-17T18:33:23.489Z,21.50
2018-08-17T18:35:52.583Z,21.40
2018-08-17T18:38:20.805Z,21.30
2018-08-17T18:40:49.019Z,21.20
2018-08-17T18:43:17.675Z,21.20
2018-08-17T18:45:46.479Z,21.10
2018-08-17T18:48:15.138Z,21.00
2018-08-17T18:50:44.025Z,21.00
2018-08-17T18:53:12.768Z,20.90
2018-08-17T18:55:40.975Z,20.90
2018-08-17T18:58:09.227Z,20.90
2018-08-17T19:00:37.470Z,20.80
2018-08-17T19:03:05.814Z,20.80
2018-08-17T19:05:34.482Z,20.80
2018-08-17T19:08:02.743Z,20.80
2018-08-17T19:10:31.067Z,20.70
2018-08-17T19:13:00.021Z,20.70
2018-08-17T19:15:28.263Z,20.60
2018-08-17T19:17:56.507Z,20.60
2018-08-17T19:20:24.743Z,20.50
2018-08-17T19:22:53.542Z,20.50
2018-08-17T19:25:21.804Z,20.40
2018-08-17T19:27:50.033Z,20.50
2018-08-17T19:30:25.728Z,20.50
2018-08-17T19:32:55.283Z,20.50
2018-08-17T19:35:23.583Z,20.50
2018-08-17T19:37:52.557Z,20.40
2018-08-17T19:40:21.870Z,20.40
2018-08-17T19:42:50.227Z,20.50
2018-08-17T19:45:18.926Z,20.40
2018-08-17T19:47:47.123Z,20.30
2018-08-17T19:50:15.361Z,20.30
2018-08-17T19:52:43.639Z,20.30
2018-08-17T19:55:11.929Z,20.30
2018-08-17T19:57:40.868Z,20.30
2018-08-17T20:00:10.357Z,20.30
2018-08-17T20:02:38.591Z,20.30
2018-08-17T20:05:07.126Z,20.20
2018-08-17T20:07:35.411Z,20.20
2018-08-17T20:10:03.719Z,20.10
2018-08-17T20:12:32.981Z,20.30
2018-08-17T20:15:01.214Z,20.20
2018-08-17T20:17:30.128Z,20.20
2018-08-17T20:19:59.238Z,20.20
2018-08-17T20:22:27.459Z,20.10
2018-08-17T20:24:56.699Z,20.10
2018-08-17T20:27:25.036Z,20.10
2018-08-17T20:29:53.431Z,20.00
2018-08-17T20:32:21.905Z,20.00
2018-08-17T20:34:50.119Z,19.90
2018-08-17T20:37:18.580Z,20.00
2018-08-17T20:39:47.572Z,20.00
2018-08-17T20:42:15.803Z,19.90
2018-08-17T20:44:44.030Z,19.80
2018-08-17T20:47:13.135Z,19.80
2018-08-17T20:49:41.420Z,19.90
2018-08-17T20:52:09.995Z,19.80
2018-08-17T20:54:38.251Z,19.70
2018-08-17T20:57:06.496Z,19.70
2018-08-17T20:59:34.675Z,19.70
2018-08-17T21:02:02.895Z,19.80
2018-08-17T21:04:31.131Z,19.80
2018-08-17T21:06:59.672Z,19.80
2018-08-17T21:09:27.863Z,19.70
2018-08-17T21:11:56.099Z,19.70
2018-08-17T21:14:24.303Z,19.90
2018-08-17T21:16:52.949Z,19.90
2018-08-17T21:19:27.423Z,19.90
2018-08-17T21:21:56.506Z,19.90
2018-08-17T21:24:25.727Z,19.80
2018-08-17T21:26:54.007Z,19.80
2018-08-17T21:29:22.459Z,19.80
2018-08-17T21:31:51.259Z,19.70
2018-08-17T21:34:19.520Z,19.70
2018-08-17T21:36:47.736Z,19.60
2018-08-17T21:39:17.609Z,19.60
2018-08-17T21:41:47.301Z,19.50
2018-08-17T21:44:18.737Z,19.50
2018-08-17T21:47:04.407Z,19.50
2018-08-17T21:49:32.636Z,19.50
2018-08-17T21:52:03.035Z,19.30
2018-08-17T21:54:32.541Z,19.30
2018-08-17T21:57:01.613Z,19.30
2018-08-17T21:59:35.814Z,19.20
2018-08-17T22:02:05.453Z,19.20
2018-08-17T22:04:33.757Z,19.30
2018-08-17T22:07:05.691Z,19.20
2018-08-17T22:09:42.559Z,19.20
2018-08-17T22:12:11.606Z,19.20
2018-08-17T22:14:39.823Z,19.10
2018-08-17T22:17:18.206Z,19.20
2018-08-17T22:19:47.344Z,19.10
2018-08-17T22:22:16.539Z,19.10
2018-08-17T22:24:50.200Z,19.10
2018-08-17T22:27:19.091Z,19.10
2018-08-17T22:29:49.030Z,19.10
2018-08-17T22:32:17.444Z,19.10
2018-08-17T22:34:46.026Z,19.10
2018-08-17T22:37:14.316Z,19.10
2018-08-17T22:39:42.589Z,19.00
2018-08-17T22:42:11.699Z,19.00
2018-08-17T22:44:39.883Z,19.00
2018-08-17T22:47:16.455Z,18.90
2018-08-17T22:49:45.200Z,18.90
2018-08-17T22:52:13.559Z,18.90
2018-08-17T22:54:47.308Z,19.00
2018-08-17T22:57:15.979Z,18.90
2018-08-17T22:59:44.243Z,19.00
2018-08-17T23:02:13.531Z,18.90
2018-08-17T23:04:41.764Z,19.00
2018-08-17T23:07:10.021Z,18.90
2018-08-17T23:09:38.230Z,19.00
2018-08-17T23:12:06.561Z,19.00
2018-08-17T23:14:34.847Z,18.90
2018-08-17T23:17:03.068Z,18.90
2018-08-17T23:19:31.311Z,18.80
2018-08-17T23:21:59.677Z,18.80
2018-08-17T23:24:28.822Z,18.90
2018-08-17T23:26:57.107Z,18.90
2018-08-17T23:29:25.323Z,18.80
2018-08-17T23:31:53.560Z,18.80
2018-08-17T23:34:21.800Z,18.80
2018-08-17T23:36:50.050Z,18.80
2018-08-17T23:39:18.347Z,18.90
2018-08-17T23:41:49.556Z,18.90
2018-08-17T23:44:18.148Z,18.90
2018-08-17T23:46:46.364Z,18.80
2018-08-17T23:49:14.584Z,18.90
2018-08-17T23:51:42.843Z,18.90
2018-08-17T23:54:11.050Z,18.80
2018-08-17T23:56:39.302Z,18.80
2018-08-17T23:59:07.847Z,18.80
